sensor_id;sensor_type;location;lat;lon;timestamp;temperature;humidity
33105;DHT22;19476;51.448;6.674;2022-12-15T00:01:17;4.80;38.70
33105;DHT22;19476;51.448;6.674;2022-12-15T00:04:01;4.70;38.80
33105;DHT22;19476;51.448;6.674;2022-12-15T00:06:46;4.70;38.90
33105;DHT22;19476;51.448;6.674;2022-12-15T00:09:37;4.70;38.90
33105;DHT22;19476;51.448;6.674;2022-12-15T00:12:21;4.70;38.90
33105;DHT22;19476;51.448;6.674;2022-12-15T00:15:06;4.70;38.80
33105;DHT22;19476;51.448;6.674;2022-12-15T00:17:50;4.70;38.80
33105;DHT22;19476;51.448;6.674;2022-12-15T00:20:35;4.70;38.70
33105;DHT22;19476;51.448;6.674;2022-12-15T00:23:19;4.60;38.60
33105;DHT22;19476;51.448;6.674;2022-12-15T00:26:03;4.60;38.60
33105;DHT22;19476;51.448;6.674;2022-12-15T00:28:48;4.60;38.70
33105;DHT22;19476;51.448;6.674;2022-12-15T00:31:32;4.60;38.70
33105;DHT22;19476;51.448;6.674;2022-12-15T00:34:16;4.60;38.80
33105;DHT22;19476;51.448;6.674;2022-12-15T00:37:01;4.60;38.80
33105;DHT22;19476;51.448;6.674;2022-12-15T00:39:45;4.60;38.80
33105;DHT22;19476;51.448;6.674;2022-12-15T00:42:11;4.50;38.70
33105;DHT22;19476;51.448;6.674;2022-12-15T00:44:37;4.50;38.70
33105;DHT22;19476;51.448;6.674;2022-12-15T00:47:03;4.50;38.70
33105;DHT22;19476;51.448;6.674;2022-12-15T00:49:30;4.50;38.80
33105;DHT22;19476;51.448;6.674;2022-12-15T00:52:16;4.50;39.10
33105;DHT22;19476;51.448;6.674;2022-12-15T00:55:00;4.40;39.20
33105;DHT22;19476;51.448;6.674;2022-12-15T00:57:45;4.40;39.30
33105;DHT22;19476;51.448;6.674;2022-12-15T01:00:30;4.40;39.40
33105;DHT22;19476;51.448;6.674;2022-12-15T01:03:20;4.40;39.40
33105;DHT22;19476;51.448;6.674;2022-12-15T01:06:11;4.50;39.50
33105;DHT22;19476;51.448;6.674;2022-12-15T01:08:55;4.50;39.40
33105;DHT22;19476;51.448;6.674;2022-12-15T01:11:41;4.50;39.20
33105;DHT22;19476;51.448;6.674;2022-12-15T01:14:25;4.50;39.20
33105;DHT22;19476;51.448;6.674;2022-12-15T01:17:11;4.40;39.30
33105;DHT22;19476;51.448;6.674;2022-12-15T01:19:55;4.40;39.50
33105;DHT22;19476;51.448;6.674;2022-12-15T01:22:40;4.40;39.50
33105;DHT22;19476;51.448;6.674;2022-12-15T01:25:07;4.40;39.60
33105;DHT22;19476;51.448;6.674;2022-12-15T01:27:33;4.40;39.70
33105;DHT22;19476;51.448;6.674;2022-12-15T01:29:59;4.40;39.70
33105;DHT22;19476;51.448;6.674;2022-12-15T01:32:25;4.30;39.70
33105;DHT22;19476;51.448;6.674;2022-12-15T01:34:52;4.30;39.70
33105;DHT22;19476;51.448;6.674;2022-12-15T01:37:18;4.30;39.80
33105;DHT22;19476;51.448;6.674;2022-12-15T01:39:44;4.30;39.90
33105;DHT22;19476;51.448;6.674;2022-12-15T01:42:29;4.30;39.90
33105;DHT22;19476;51.448;6.674;2022-12-15T01:48:01;4.30;40.10
33105;DHT22;19476;51.448;6.674;2022-12-15T01:50:29;4.30;39.90
33105;DHT22;19476;51.448;6.674;2022-12-15T01:52:56;4.30;39.80
33105;DHT22;19476;51.448;6.674;2022-12-15T01:55:24;4.30;39.80
33105;DHT22;19476;51.448;6.674;2022-12-15T01:57:58;4.20;40.00
33105;DHT22;19476;51.448;6.674;2022-12-15T02:00:25;4.20;40.10
33105;DHT22;19476;51.448;6.674;2022-12-15T02:02:53;4.20;40.20
33105;DHT22;19476;51.448;6.674;2022-12-15T02:05:20;4.20;40.40
33105;DHT22;19476;51.448;6.674;2022-12-15T02:07:46;4.20;40.40
33105;DHT22;19476;51.448;6.674;2022-12-15T02:10:12;4.30;40.40
33105;DHT22;19476;51.448;6.674;2022-12-15T02:15:42;4.30;40.20
33105;DHT22;19476;51.448;6.674;2022-12-15T02:18:18;4.30;40.10
33105;DHT22;19476;51.448;6.674;2022-12-15T02:21:09;4.30;40.20
33105;DHT22;19476;51.448;6.674;2022-12-15T02:28:51;4.30;40.40
33105;DHT22;19476;51.448;6.674;2022-12-15T02:31:31;4.30;40.50
33105;DHT22;19476;51.448;6.674;2022-12-15T02:37:07;4.30;40.40
33105;DHT22;19476;51.448;6.674;2022-12-15T02:39:34;4.30;40.40
33105;DHT22;19476;51.448;6.674;2022-12-15T02:42:00;4.30;40.80
33105;DHT22;19476;51.448;6.674;2022-12-15T02:47:12;4.30;40.60
33105;DHT22;19476;51.448;6.674;2022-12-15T02:57:50;4.30;41.00
33105;DHT22;19476;51.448;6.674;2022-12-15T03:00:18;4.30;41.10
33105;DHT22;19476;51.448;6.674;2022-12-15T03:02:48;4.30;40.80
33105;DHT22;19476;51.448;6.674;2022-12-15T03:05:14;4.30;40.70
33105;DHT22;19476;51.448;6.674;2022-12-15T03:07:41;4.30;40.90
33105;DHT22;19476;51.448;6.674;2022-12-15T03:10:08;4.40;40.70
33105;DHT22;19476;51.448;6.674;2022-12-15T03:12:35;4.30;40.90
33105;DHT22;19476;51.448;6.674;2022-12-15T03:15:01;4.30;41.00
33105;DHT22;19476;51.448;6.674;2022-12-15T03:17:27;4.30;41.10
33105;DHT22;19476;51.448;6.674;2022-12-15T03:19:53;4.30;41.10
33105;DHT22;19476;51.448;6.674;2022-12-15T03:22:18;4.30;41.10
33105;DHT22;19476;51.448;6.674;2022-12-15T03:24:45;4.20;41.10
33105;DHT22;19476;51.448;6.674;2022-12-15T03:27:10;4.20;41.20
33105;DHT22;19476;51.448;6.674;2022-12-15T03:29:36;4.20;41.30
33105;DHT22;19476;51.448;6.674;2022-12-15T03:32:02;4.30;41.50
33105;DHT22;19476;51.448;6.674;2022-12-15T03:34:28;4.20;41.50
33105;DHT22;19476;51.448;6.674;2022-12-15T03:36:54;4.20;41.50
33105;DHT22;19476;51.448;6.674;2022-12-15T03:39:19;4.20;41.70
33105;DHT22;19476;51.448;6.674;2022-12-15T03:41:45;4.20;41.70
33105;DHT22;19476;51.448;6.674;2022-12-15T03:44:11;4.20;41.70
33105;DHT22;19476;51.448;6.674;2022-12-15T03:46:37;4.20;41.70
33105;DHT22;19476;51.448;6.674;2022-12-15T03:49:02;4.20;41.80
33105;DHT22;19476;51.448;6.674;2022-12-15T03:51:28;4.20;41.80
33105;DHT22;19476;51.448;6.674;2022-12-15T03:53:54;4.20;41.90
33105;DHT22;19476;51.448;6.674;2022-12-15T03:56:20;4.20;41.90
33105;DHT22;19476;51.448;6.674;2022-12-15T03:58:46;4.20;42.00
33105;DHT22;19476;51.448;6.674;2022-12-15T04:03:44;4.10;42.30
33105;DHT22;19476;51.448;6.674;2022-12-15T04:06:09;4.10;42.10
33105;DHT22;19476;51.448;6.674;2022-12-15T04:08:35;4.10;42.30
33105;DHT22;19476;51.448;6.674;2022-12-15T04:11:01;4.10;42.30
33105;DHT22;19476;51.448;6.674;2022-12-15T04:13:26;4.10;42.40
33105;DHT22;19476;51.448;6.674;2022-12-15T04:15:52;4.00;42.40
33105;DHT22;19476;51.448;6.674;2022-12-15T04:18:18;4.00;42.40
33105;DHT22;19476;51.448;6.674;2022-12-15T04:20:44;4.00;42.30
33105;DHT22;19476;51.448;6.674;2022-12-15T04:23:09;4.00;42.40
33105;DHT22;19476;51.448;6.674;2022-12-15T04:25:36;4.00;42.50
33105;DHT22;19476;51.448;6.674;2022-12-15T04:28:21;4.00;42.60
33105;DHT22;19476;51.448;6.674;2022-12-15T04:31:08;4.00;42.70
33105;DHT22;19476;51.448;6.674;2022-12-15T04:34:04;4.00;42.90
33105;DHT22;19476;51.448;6.674;2022-12-15T04:36:52;3.90;43.30
33105;DHT22;19476;51.448;6.674;2022-12-15T04:39:40;3.90;43.00
33105;DHT22;19476;51.448;6.674;2022-12-15T04:42:25;3.90;43.10
33105;DHT22;19476;51.448;6.674;2022-12-15T04:45:11;3.90;43.10
33105;DHT22;19476;51.448;6.674;2022-12-15T04:47:56;3.90;43.10
33105;DHT22;19476;51.448;6.674;2022-12-15T04:50:40;3.90;43.10
33105;DHT22;19476;51.448;6.674;2022-12-15T04:53:24;3.90;43.10
33105;DHT22;19476;51.448;6.674;2022-12-15T04:56:11;3.90;43.20
33105;DHT22;19476;51.448;6.674;2022-12-15T04:58:55;4.00;43.30
33105;DHT22;19476;51.448;6.674;2022-12-15T05:01:40;3.90;43.30
33105;DHT22;19476;51.448;6.674;2022-12-15T05:04:24;4.00;43.30
33105;DHT22;19476;51.448;6.674;2022-12-15T05:07:08;4.00;43.40
33105;DHT22;19476;51.448;6.674;2022-12-15T05:09:52;4.00;43.30
33105;DHT22;19476;51.448;6.674;2022-12-15T05:12:37;3.90;43.30
33105;DHT22;19476;51.448;6.674;2022-12-15T05:15:22;4.00;43.40
33105;DHT22;19476;51.448;6.674;2022-12-15T05:18:06;3.90;43.40
33105;DHT22;19476;51.448;6.674;2022-12-15T05:20:50;3.90;43.40
33105;DHT22;19476;51.448;6.674;2022-12-15T05:23:34;3.80;43.40
33105;DHT22;19476;51.448;6.674;2022-12-15T05:26:18;3.80;44.00
33105;DHT22;19476;51.448;6.674;2022-12-15T05:29:03;3.80;43.60
33105;DHT22;19476;51.448;6.674;2022-12-15T05:31:47;3.80;43.70
33105;DHT22;19476;51.448;6.674;2022-12-15T05:34:24;3.80;43.80
33105;DHT22;19476;51.448;6.674;2022-12-15T05:36:51;3.80;43.80
33105;DHT22;19476;51.448;6.674;2022-12-15T05:39:18;3.80;43.80
33105;DHT22;19476;51.448;6.674;2022-12-15T05:41:44;3.90;43.80
33105;DHT22;19476;51.448;6.674;2022-12-15T05:44:10;3.80;43.70
33105;DHT22;19476;51.448;6.674;2022-12-15T05:46:36;3.80;43.70
33105;DHT22;19476;51.448;6.674;2022-12-15T05:49:03;3.80;43.80
33105;DHT22;19476;51.448;6.674;2022-12-15T05:51:29;3.80;43.90
33105;DHT22;19476;51.448;6.674;2022-12-15T05:53:55;3.80;43.80
33105;DHT22;19476;51.448;6.674;2022-12-15T05:56:21;3.80;43.80
33105;DHT22;19476;51.448;6.674;2022-12-15T05:58:47;3.80;43.80
33105;DHT22;19476;51.448;6.674;2022-12-15T06:01:14;3.80;43.90
33105;DHT22;19476;51.448;6.674;2022-12-15T06:03:41;3.80;44.00
33105;DHT22;19476;51.448;6.674;2022-12-15T06:06:09;3.70;44.10
33105;DHT22;19476;51.448;6.674;2022-12-15T06:08:38;3.70;44.30
33105;DHT22;19476;51.448;6.674;2022-12-15T06:11:04;3.70;44.40
33105;DHT22;19476;51.448;6.674;2022-12-15T06:13:31;3.70;44.30
33105;DHT22;19476;51.448;6.674;2022-12-15T06:16:04;3.70;44.50
33105;DHT22;19476;51.448;6.674;2022-12-15T06:18:33;3.70;44.60
33105;DHT22;19476;51.448;6.674;2022-12-15T06:21:06;3.70;44.70
33105;DHT22;19476;51.448;6.674;2022-12-15T06:23:32;3.70;45.00
33105;DHT22;19476;51.448;6.674;2022-12-15T06:25:59;3.70;44.90
33105;DHT22;19476;51.448;6.674;2022-12-15T06:28:25;3.80;45.00
33105;DHT22;19476;51.448;6.674;2022-12-15T06:30:52;3.80;44.80
33105;DHT22;19476;51.448;6.674;2022-12-15T06:33:19;3.90;44.90
33105;DHT22;19476;51.448;6.674;2022-12-15T06:35:45;3.90;44.80
33105;DHT22;19476;51.448;6.674;2022-12-15T06:38:11;3.90;44.70
33105;DHT22;19476;51.448;6.674;2022-12-15T06:40:37;3.90;44.60
33105;DHT22;19476;51.448;6.674;2022-12-15T06:43:03;3.90;44.60
33105;DHT22;19476;51.448;6.674;2022-12-15T06:45:29;4.00;44.60
33105;DHT22;19476;51.448;6.674;2022-12-15T06:47:54;4.00;44.60
33105;DHT22;19476;51.448;6.674;2022-12-15T06:50:20;4.00;44.60
33105;DHT22;19476;51.448;6.674;2022-12-15T06:52:46;3.90;44.50
33105;DHT22;19476;51.448;6.674;2022-12-15T06:55:11;4.00;44.60
33105;DHT22;19476;51.448;6.674;2022-12-15T06:57:38;4.00;44.60
33105;DHT22;19476;51.448;6.674;2022-12-15T07:00:04;4.00;44.70
33105;DHT22;19476;51.448;6.674;2022-12-15T07:02:31;4.00;44.70
33105;DHT22;19476;51.448;6.674;2022-12-15T07:04:57;4.00;44.70
33105;DHT22;19476;51.448;6.674;2022-12-15T07:07:24;3.90;44.60
33105;DHT22;19476;51.448;6.674;2022-12-15T07:09:50;3.90;44.70
33105;DHT22;19476;51.448;6.674;2022-12-15T07:12:16;3.90;44.70
33105;DHT22;19476;51.448;6.674;2022-12-15T07:14:42;3.90;44.70
33105;DHT22;19476;51.448;6.674;2022-12-15T07:17:08;3.90;44.80
33105;DHT22;19476;51.448;6.674;2022-12-15T07:19:37;3.90;44.80
33105;DHT22;19476;51.448;6.674;2022-12-15T07:22:03;3.90;44.80
33105;DHT22;19476;51.448;6.674;2022-12-15T07:24:29;3.90;44.80
33105;DHT22;19476;51.448;6.674;2022-12-15T07:26:55;3.80;45.40
33105;DHT22;19476;51.448;6.674;2022-12-15T07:29:20;3.80;44.80
33105;DHT22;19476;51.448;6.674;2022-12-15T07:31:46;3.80;44.80
33105;DHT22;19476;51.448;6.674;2022-12-15T07:34:12;3.80;44.90
33105;DHT22;19476;51.448;6.674;2022-12-15T07:36:38;3.80;45.00
33105;DHT22;19476;51.448;6.674;2022-12-15T07:39:04;3.80;45.00
33105;DHT22;19476;51.448;6.674;2022-12-15T07:41:30;3.80;45.30
33105;DHT22;19476;51.448;6.674;2022-12-15T07:43:56;3.70;45.20
33105;DHT22;19476;51.448;6.674;2022-12-15T07:46:23;3.70;45.20
33105;DHT22;19476;51.448;6.674;2022-12-15T07:48:50;3.60;45.40
33105;DHT22;19476;51.448;6.674;2022-12-15T07:51:17;3.60;45.50
33105;DHT22;19476;51.448;6.674;2022-12-15T07:53:44;3.60;45.70
33105;DHT22;19476;51.448;6.674;2022-12-15T07:56:09;3.50;45.70
33105;DHT22;19476;51.448;6.674;2022-12-15T07:58:36;3.50;45.80
33105;DHT22;19476;51.448;6.674;2022-12-15T08:04:24;3.50;46.70
33105;DHT22;19476;51.448;6.674;2022-12-15T08:06:49;3.50;46.10
33105;DHT22;19476;51.448;6.674;2022-12-15T08:09:15;3.50;46.30
33105;DHT22;19476;51.448;6.674;2022-12-15T08:11:41;3.50;46.30
33105;DHT22;19476;51.448;6.674;2022-12-15T08:14:07;3.40;46.40
33105;DHT22;19476;51.448;6.674;2022-12-15T08:16:33;3.40;46.60
33105;DHT22;19476;51.448;6.674;2022-12-15T08:19:01;3.40;46.70
33105;DHT22;19476;51.448;6.674;2022-12-15T08:21:27;3.40;46.90
33105;DHT22;19476;51.448;6.674;2022-12-15T08:23:53;3.40;46.90
33105;DHT22;19476;51.448;6.674;2022-12-15T08:26:19;3.40;47.00
33105;DHT22;19476;51.448;6.674;2022-12-15T08:28:45;3.40;47.00
33105;DHT22;19476;51.448;6.674;2022-12-15T08:31:16;3.40;47.20
33105;DHT22;19476;51.448;6.674;2022-12-15T08:33:43;3.40;47.60
33105;DHT22;19476;51.448;6.674;2022-12-15T08:36:11;3.50;47.50
33105;DHT22;19476;51.448;6.674;2022-12-15T08:38:38;3.50;47.50
33105;DHT22;19476;51.448;6.674;2022-12-15T08:41:20;3.50;47.50
33105;DHT22;19476;51.448;6.674;2022-12-15T08:43:48;3.50;47.90
33105;DHT22;19476;51.448;6.674;2022-12-15T08:46:14;3.60;47.70
33105;DHT22;19476;51.448;6.674;2022-12-15T08:48:41;3.60;47.70
33105;DHT22;19476;51.448;6.674;2022-12-15T08:51:07;3.60;47.70
33105;DHT22;19476;51.448;6.674;2022-12-15T08:53:34;3.60;47.60
33105;DHT22;19476;51.448;6.674;2022-12-15T08:56:11;3.60;47.70
33105;DHT22;19476;51.448;6.674;2022-12-15T08:58:38;3.60;48.20
33105;DHT22;19476;51.448;6.674;2022-12-15T09:01:15;3.70;47.80
33105;DHT22;19476;51.448;6.674;2022-12-15T09:03:42;3.70;48.10
33105;DHT22;19476;51.448;6.674;2022-12-15T09:06:12;3.70;47.90
33105;DHT22;19476;51.448;6.674;2022-12-15T09:08:38;3.70;48.20
33105;DHT22;19476;51.448;6.674;2022-12-15T09:11:05;3.70;48.00
33105;DHT22;19476;51.448;6.674;2022-12-15T09:13:31;3.70;48.00
33105;DHT22;19476;51.448;6.674;2022-12-15T09:15:58;3.80;48.10
33105;DHT22;19476;51.448;6.674;2022-12-15T09:18:24;3.80;48.30
33105;DHT22;19476;51.448;6.674;2022-12-15T09:20:50;3.80;48.20
33105;DHT22;19476;51.448;6.674;2022-12-15T09:23:16;3.80;48.20
33105;DHT22;19476;51.448;6.674;2022-12-15T09:25:42;3.90;48.20
33105;DHT22;19476;51.448;6.674;2022-12-15T09:28:08;3.90;48.20
33105;DHT22;19476;51.448;6.674;2022-12-15T09:30:34;3.90;48.20
33105;DHT22;19476;51.448;6.674;2022-12-15T09:33:00;4.00;48.30
33105;DHT22;19476;51.448;6.674;2022-12-15T09:35:27;4.00;48.40
33105;DHT22;19476;51.448;6.674;2022-12-15T09:37:52;4.00;48.40
33105;DHT22;19476;51.448;6.674;2022-12-15T09:40:18;4.10;48.40
33105;DHT22;19476;51.448;6.674;2022-12-15T09:42:52;4.10;48.30
33105;DHT22;19476;51.448;6.674;2022-12-15T09:45:36;4.00;48.70
33105;DHT22;19476;51.448;6.674;2022-12-15T09:48:07;4.10;49.00
33105;DHT22;19476;51.448;6.674;2022-12-15T09:50:36;4.10;48.70
33105;DHT22;19476;51.448;6.674;2022-12-15T09:53:07;4.10;48.70
33105;DHT22;19476;51.448;6.674;2022-12-15T09:55:35;4.00;48.70
33105;DHT22;19476;51.448;6.674;2022-12-15T09:58:37;4.00;48.60
33105;DHT22;19476;51.448;6.674;2022-12-15T10:09:25;4.00;48.80
33105;DHT22;19476;51.448;6.674;2022-12-15T10:16:51;3.80;48.70
33105;DHT22;19476;51.448;6.674;2022-12-15T10:21:47;4.10;49.30
33105;DHT22;19476;51.448;6.674;2022-12-15T10:24:16;3.80;49.10
33105;DHT22;19476;51.448;6.674;2022-12-15T10:26:51;3.70;49.30
33105;DHT22;19476;51.448;6.674;2022-12-15T10:29:28;3.80;49.40
33105;DHT22;19476;51.448;6.674;2022-12-15T10:34:37;3.80;49.90
33105;DHT22;19476;51.448;6.674;2022-12-15T10:37:03;3.80;49.50
33105;DHT22;19476;51.448;6.674;2022-12-15T10:39:40;3.90;49.80
33105;DHT22;19476;51.448;6.674;2022-12-15T10:44:51;3.90;50.10
33105;DHT22;19476;51.448;6.674;2022-12-15T10:47:20;3.90;49.80
33105;DHT22;19476;51.448;6.674;2022-12-15T10:49:46;4.00;49.80
33105;DHT22;19476;51.448;6.674;2022-12-15T10:52:36;4.10;49.90
33105;DHT22;19476;51.448;6.674;2022-12-15T10:55:30;4.10;50.50
33105;DHT22;19476;51.448;6.674;2022-12-15T10:57:59;4.20;50.50
33105;DHT22;19476;51.448;6.674;2022-12-15T11:00:28;4.30;50.00
33105;DHT22;19476;51.448;6.674;2022-12-15T11:02:54;4.30;49.80
33105;DHT22;19476;51.448;6.674;2022-12-15T11:05:20;4.40;49.80
33105;DHT22;19476;51.448;6.674;2022-12-15T11:07:51;4.50;49.80
33105;DHT22;19476;51.448;6.674;2022-12-15T11:12:43;4.60;49.60
33105;DHT22;19476;51.448;6.674;2022-12-15T11:17:54;4.70;49.60
33105;DHT22;19476;51.448;6.674;2022-12-15T11:20:28;4.70;49.60
33105;DHT22;19476;51.448;6.674;2022-12-15T11:25:57;4.70;49.50
33105;DHT22;19476;51.448;6.674;2022-12-15T11:28:39;4.70;49.80
33105;DHT22;19476;51.448;6.674;2022-12-15T11:31:24;4.70;49.60
33105;DHT22;19476;51.448;6.674;2022-12-15T11:33:52;4.70;49.80
33105;DHT22;19476;51.448;6.674;2022-12-15T11:39:33;4.70;50.00
33105;DHT22;19476;51.448;6.674;2022-12-15T11:56:30;4.70;50.30
33105;DHT22;19476;51.448;6.674;2022-12-15T11:59:23;4.70;50.60
33105;DHT22;19476;51.448;6.674;2022-12-15T12:07:44;4.90;50.10
33105;DHT22;19476;51.448;6.674;2022-12-15T12:13:27;5.00;50.40
33105;DHT22;19476;51.448;6.674;2022-12-15T12:18:59;5.20;49.70
33105;DHT22;19476;51.448;6.674;2022-12-15T12:21:29;5.20;49.80
33105;DHT22;19476;51.448;6.674;2022-12-15T12:27:13;5.20;49.50
33105;DHT22;19476;51.448;6.674;2022-12-15T12:30:21;5.30;49.30
33105;DHT22;19476;51.448;6.674;2022-12-15T12:36:15;5.30;49.20
33105;DHT22;19476;51.448;6.674;2022-12-15T12:38:19;5.30;49.20
33105;DHT22;19476;51.448;6.674;2022-12-15T12:48:37;5.40;48.90
33105;DHT22;19476;51.448;6.674;2022-12-15T12:51:25;5.50;49.10
33105;DHT22;19476;51.448;6.674;2022-12-15T12:53:53;5.50;49.30
33105;DHT22;19476;51.448;6.674;2022-12-15T12:56:30;5.50;48.90
33105;DHT22;19476;51.448;6.674;2022-12-15T12:58:57;5.60;49.10
33105;DHT22;19476;51.448;6.674;2022-12-15T13:01:33;5.60;48.80
33105;DHT22;19476;51.448;6.674;2022-12-15T13:04:11;5.60;48.80
33105;DHT22;19476;51.448;6.674;2022-12-15T13:14:28;5.60;48.30
33105;DHT22;19476;51.448;6.674;2022-12-15T13:17:03;5.60;48.60
33105;DHT22;19476;51.448;6.674;2022-12-15T13:20:15;5.70;48.90
33105;DHT22;19476;51.448;6.674;2022-12-15T13:22:42;5.80;48.80
33105;DHT22;19476;51.448;6.674;2022-12-15T13:25:32;5.90;48.60
33105;DHT22;19476;51.448;6.674;2022-12-15T13:28:00;6.00;48.90
33105;DHT22;19476;51.448;6.674;2022-12-15T13:30:26;6.20;48.70
33105;DHT22;19476;51.448;6.674;2022-12-15T13:32:54;6.30;48.40
33105;DHT22;19476;51.448;6.674;2022-12-15T13:35:39;6.40;48.50
33105;DHT22;19476;51.448;6.674;2022-12-15T13:38:19;6.60;48.40
33105;DHT22;19476;51.448;6.674;2022-12-15T13:40:52;6.80;48.00
33105;DHT22;19476;51.448;6.674;2022-12-15T13:45:56;7.30;47.40
33105;DHT22;19476;51.448;6.674;2022-12-15T13:48:30;7.60;47.30
33105;DHT22;19476;51.448;6.674;2022-12-15T13:51:21;7.80;46.80
33105;DHT22;19476;51.448;6.674;2022-12-15T13:53:56;8.00;45.30
33105;DHT22;19476;51.448;6.674;2022-12-15T13:58:59;8.00;44.30
33105;DHT22;19476;51.448;6.674;2022-12-15T14:01:29;7.90;44.20
33105;DHT22;19476;51.448;6.674;2022-12-15T14:04:09;7.80;44.80
33105;DHT22;19476;51.448;6.674;2022-12-15T14:06:50;7.70;44.30
33105;DHT22;19476;51.448;6.674;2022-12-15T14:09:20;7.50;44.20
33105;DHT22;19476;51.448;6.674;2022-12-15T14:11:47;7.40;44.40
33105;DHT22;19476;51.448;6.674;2022-12-15T14:14:20;7.30;44.50
33105;DHT22;19476;51.448;6.674;2022-12-15T14:16:52;7.20;44.70
33105;DHT22;19476;51.448;6.674;2022-12-15T14:19:19;7.20;44.90
33105;DHT22;19476;51.448;6.674;2022-12-15T14:21:58;7.10;45.00
33105;DHT22;19476;51.448;6.674;2022-12-15T14:24:29;7.10;45.10
33105;DHT22;19476;51.448;6.674;2022-12-15T14:26:56;7.10;45.20
33105;DHT22;19476;51.448;6.674;2022-12-15T14:29:22;7.10;45.20
33105;DHT22;19476;51.448;6.674;2022-12-15T14:31:54;7.10;45.20
33105;DHT22;19476;51.448;6.674;2022-12-15T14:34:27;7.10;45.20
33105;DHT22;19476;51.448;6.674;2022-12-15T14:36:57;7.10;45.10
33105;DHT22;19476;51.448;6.674;2022-12-15T14:39:44;7.10;45.20
33105;DHT22;19476;51.448;6.674;2022-12-15T14:42:21;7.00;45.10
33105;DHT22;19476;51.448;6.674;2022-12-15T14:44:48;7.00;45.10
33105;DHT22;19476;51.448;6.674;2022-12-15T14:47:32;7.00;45.10
33105;DHT22;19476;51.448;6.674;2022-12-15T14:50:00;6.90;45.10
33105;DHT22;19476;51.448;6.674;2022-12-15T14:52:39;6.90;45.20
33105;DHT22;19476;51.448;6.674;2022-12-15T14:55:34;6.90;45.20
33105;DHT22;19476;51.448;6.674;2022-12-15T14:58:26;6.90;45.20
33105;DHT22;19476;51.448;6.674;2022-12-15T15:00:49;6.90;45.20
33105;DHT22;19476;51.448;6.674;2022-12-15T15:05:56;6.90;45.10
33105;DHT22;19476;51.448;6.674;2022-12-15T15:08:30;6.90;45.10
33105;DHT22;19476;51.448;6.674;2022-12-15T15:14:07;6.80;45.20
33105;DHT22;19476;51.448;6.674;2022-12-15T15:16:35;6.80;45.10
33105;DHT22;19476;51.448;6.674;2022-12-15T15:19:02;6.80;45.10
33105;DHT22;19476;51.448;6.674;2022-12-15T15:21:32;6.80;45.20
33105;DHT22;19476;51.448;6.674;2022-12-15T15:26:36;6.80;45.10
33105;DHT22;19476;51.448;6.674;2022-12-15T15:29:03;6.80;45.00
33105;DHT22;19476;51.448;6.674;2022-12-15T15:31:33;6.80;45.00
33105;DHT22;19476;51.448;6.674;2022-12-15T15:33:59;6.80;44.90
33105;DHT22;19476;51.448;6.674;2022-12-15T15:36:33;6.90;44.90
33105;DHT22;19476;51.448;6.674;2022-12-15T15:39:08;6.90;44.70
33105;DHT22;19476;51.448;6.674;2022-12-15T15:41:34;6.80;44.70
33105;DHT22;19476;51.448;6.674;2022-12-15T15:44:01;6.90;44.60
33105;DHT22;19476;51.448;6.674;2022-12-15T15:46:42;6.90;44.40
33105;DHT22;19476;51.448;6.674;2022-12-15T15:49:14;6.90;44.80
33105;DHT22;19476;51.448;6.674;2022-12-15T15:51:40;6.90;44.30
33105;DHT22;19476;51.448;6.674;2022-12-15T15:54:11;6.80;44.30
33105;DHT22;19476;51.448;6.674;2022-12-15T15:56:38;6.80;44.30
33105;DHT22;19476;51.448;6.674;2022-12-15T15:59:15;6.80;44.30
33105;DHT22;19476;51.448;6.674;2022-12-15T16:01:47;6.80;44.10
33105;DHT22;19476;51.448;6.674;2022-12-15T16:04:16;6.70;44.00
33105;DHT22;19476;51.448;6.674;2022-12-15T16:06:41;6.70;44.00
33105;DHT22;19476;51.448;6.674;2022-12-15T16:09:10;6.70;44.00
33105;DHT22;19476;51.448;6.674;2022-12-15T16:11:39;6.60;44.00
33105;DHT22;19476;51.448;6.674;2022-12-15T16:14:15;6.60;44.00
33105;DHT22;19476;51.448;6.674;2022-12-15T16:16:42;6.60;43.90
33105;DHT22;19476;51.448;6.674;2022-12-15T16:19:10;6.50;44.00
33105;DHT22;19476;51.448;6.674;2022-12-15T16:21:38;6.50;44.10
33105;DHT22;19476;51.448;6.674;2022-12-15T16:24:10;6.50;44.10
33105;DHT22;19476;51.448;6.674;2022-12-15T16:26:46;6.40;44.00
33105;DHT22;19476;51.448;6.674;2022-12-15T16:29:16;6.40;44.00
33105;DHT22;19476;51.448;6.674;2022-12-15T16:31:43;6.30;43.90
33105;DHT22;19476;51.448;6.674;2022-12-15T16:34:11;6.30;43.90
33105;DHT22;19476;51.448;6.674;2022-12-15T16:36:38;6.30;44.00
33105;DHT22;19476;51.448;6.674;2022-12-15T16:39:07;6.20;44.00
33105;DHT22;19476;51.448;6.674;2022-12-15T16:41:39;6.20;44.10
33105;DHT22;19476;51.448;6.674;2022-12-15T16:44:10;6.10;44.00
33105;DHT22;19476;51.448;6.674;2022-12-15T16:46:35;6.10;44.20
33105;DHT22;19476;51.448;6.674;2022-12-15T16:49:01;6.10;44.10
33105;DHT22;19476;51.448;6.674;2022-12-15T16:51:39;6.00;44.10
33105;DHT22;19476;51.448;6.674;2022-12-15T16:54:08;6.00;44.30
33105;DHT22;19476;51.448;6.674;2022-12-15T16:56:38;6.00;44.40
33105;DHT22;19476;51.448;6.674;2022-12-15T16:59:04;5.90;44.40
33105;DHT22;19476;51.448;6.674;2022-12-15T17:01:31;5.90;44.60
33105;DHT22;19476;51.448;6.674;2022-12-15T17:03:57;5.70;44.60
33105;DHT22;19476;51.448;6.674;2022-12-15T17:06:23;5.80;44.70
33105;DHT22;19476;51.448;6.674;2022-12-15T17:08:53;5.80;44.70
33105;DHT22;19476;51.448;6.674;2022-12-15T17:11:24;5.80;44.80
33105;DHT22;19476;51.448;6.674;2022-12-15T17:13:53;5.80;45.00
33105;DHT22;19476;51.448;6.674;2022-12-15T17:16:28;5.80;45.00
33105;DHT22;19476;51.448;6.674;2022-12-15T17:18:54;5.80;45.00
33105;DHT22;19476;51.448;6.674;2022-12-15T17:23:57;5.90;45.00
33105;DHT22;19476;51.448;6.674;2022-12-15T17:26:26;5.90;45.10
33105;DHT22;19476;51.448;6.674;2022-12-15T17:28:53;5.90;45.10
33105;DHT22;19476;51.448;6.674;2022-12-15T17:31:22;6.30;45.30
33105;DHT22;19476;51.448;6.674;2022-12-15T17:33:53;5.90;45.10
33105;DHT22;19476;51.448;6.674;2022-12-15T17:36:22;6.00;45.00
33105;DHT22;19476;51.448;6.674;2022-12-15T17:38:51;6.00;45.00
33105;DHT22;19476;51.448;6.674;2022-12-15T17:41:18;6.00;44.90
33105;DHT22;19476;51.448;6.674;2022-12-15T17:43:44;6.00;44.90
33105;DHT22;19476;51.448;6.674;2022-12-15T17:46:13;6.10;44.70
33105;DHT22;19476;51.448;6.674;2022-12-15T17:48:38;6.10;44.60
33105;DHT22;19476;51.448;6.674;2022-12-15T17:51:16;6.10;44.50
33105;DHT22;19476;51.448;6.674;2022-12-15T17:53:44;6.00;44.40
33105;DHT22;19476;51.448;6.674;2022-12-15T17:56:12;6.00;44.40
33105;DHT22;19476;51.448;6.674;2022-12-15T17:58:38;6.00;44.40
33105;DHT22;19476;51.448;6.674;2022-12-15T18:01:05;5.90;44.30
33105;DHT22;19476;51.448;6.674;2022-12-15T18:03:31;5.90;44.40
33105;DHT22;19476;51.448;6.674;2022-12-15T18:05:57;5.80;44.50
33105;DHT22;19476;51.448;6.674;2022-12-15T18:08:24;5.70;44.60
33105;DHT22;19476;51.448;6.674;2022-12-15T18:10:56;5.60;44.80
33105;DHT22;19476;51.448;6.674;2022-12-15T18:13:29;5.60;45.10
33105;DHT22;19476;51.448;6.674;2022-12-15T18:15:57;5.50;45.30
33105;DHT22;19476;51.448;6.674;2022-12-15T18:18:23;5.50;45.40
33105;DHT22;19476;51.448;6.674;2022-12-15T18:20:51;5.50;45.50